sensor_id;sensor_type;location;lat;lon;timestamp;P1;durP1;ratioP1;P2;durP2;ratioP2
17925;SDS011;9088;55.674;13.354;2023-03-29T00:00:08;1.00;;;1.00;;
17925;SDS011;9088;55.674;13.354;2023-03-29T00:02:38;1.00;;;1.00;;
17925;SDS011;9088;55.674;13.354;2023-03-29T00:05:07;1.00;;;1.00;;
17925;SDS011;9088;55.674;13.354;2023-03-29T00:07:34;1.00;;;1.00;;
17925;SDS011;9088;55.674;13.354;2023-03-29T00:10:01;1.00;;;1.00;;
17925;SDS011;9088;55.674;13.354;2023-03-29T00:12:29;1.00;;;1.00;;
17925;SDS011;9088;55.674;13.354;2023-03-29T00:14:56;1.00;;;1.00;;
17925;SDS011;9088;55.674;13.354;2023-03-29T00:17:23;1.10;;;1.10;;
17925;SDS011;9088;55.674;13.354;2023-03-29T00:19:50;1.10;;;1.10;;
17925;SDS011;9088;55.674;13.354;2023-03-29T00:22:19;1.10;;;1.10;;
17925;SDS011;9088;55.674;13.354;2023-03-29T00:24:51;1.10;;;1.10;;
17925;SDS011;9088;55.674;13.354;2023-03-29T00:27:18;1.20;;;1.20;;
17925;SDS011;9088;55.674;13.354;2023-03-29T00:29:45;1.10;;;1.10;;
17925;SDS011;9088;55.674;13.354;2023-03-29T00:32:12;1.10;;;1.10;;
17925;SDS011;9088;55.674;13.354;2023-03-29T00:34:40;1.20;;;1.20;;
17925;SDS011;9088;55.674;13.354;2023-03-29T00:37:09;1.00;;;1.00;;
17925;SDS011;9088;55.674;13.354;2023-03-29T00:39:40;1.10;;;1.10;;
17925;SDS011;9088;55.674;13.354;2023-03-29T00:42:09;1.10;;;1.10;;
17925;SDS011;9088;55.674;13.354;2023-03-29T00:44:57;1.20;;;1.20;;
17925;SDS011;9088;55.674;13.354;2023-03-29T00:47:25;1.07;;;1.07;;
17925;SDS011;9088;55.674;13.354;2023-03-29T00:49:53;1.07;;;1.07;;
17925;SDS011;9088;55.674;13.354;2023-03-29T00:52:21;1.00;;;1.00;;
17925;SDS011;9088;55.674;13.354;2023-03-29T00:54:55;1.10;;;1.10;;
17925;SDS011;9088;55.674;13.354;2023-03-29T00:57:23;1.00;;;1.00;;
17925;SDS011;9088;55.674;13.354;2023-03-29T00:59:51;1.10;;;1.10;;
17925;SDS011;9088;55.674;13.354;2023-03-29T01:02:18;1.00;;;1.00;;
17925;SDS011;9088;55.674;13.354;2023-03-29T01:04:47;1.00;;;1.00;;
17925;SDS011;9088;55.674;13.354;2023-03-29T01:07:17;1.00;;;1.00;;
17925;SDS011;9088;55.674;13.354;2023-03-29T01:09:47;0.90;;;0.90;;
17925;SDS011;9088;55.674;13.354;2023-03-29T01:12:21;0.80;;;0.80;;
17925;SDS011;9088;55.674;13.354;2023-03-29T01:14:50;0.80;;;0.80;;
17925;SDS011;9088;55.674;13.354;2023-03-29T01:17:18;0.90;;;0.90;;
17925;SDS011;9088;55.674;13.354;2023-03-29T01:19:46;0.90;;;0.90;;
17925;SDS011;9088;55.674;13.354;2023-03-29T01:22:17;0.80;;;0.80;;
17925;SDS011;9088;55.674;13.354;2023-03-29T01:24:52;0.80;;;0.80;;
17925;SDS011;9088;55.674;13.354;2023-03-29T01:27:36;0.90;;;0.90;;
17925;SDS011;9088;55.674;13.354;2023-03-29T01:30:05;0.90;;;0.90;;
17925;SDS011;9088;55.674;13.354;2023-03-29T01:32:36;0.90;;;0.90;;
17925;SDS011;9088;55.674;13.354;2023-03-29T01:35:05;0.87;;;0.87;;
17925;SDS011;9088;55.674;13.354;2023-03-29T01:37:35;0.90;;;0.90;;
17925;SDS011;9088;55.674;13.354;2023-03-29T01:40:05;0.80;;;0.80;;
17925;SDS011;9088;55.674;13.354;2023-03-29T01:42:37;0.80;;;0.80;;
17925;SDS011;9088;55.674;13.354;2023-03-29T01:45:08;0.80;;;0.80;;
17925;SDS011;9088;55.674;13.354;2023-03-29T01:47:40;0.80;;;0.80;;
17925;SDS011;9088;55.674;13.354;2023-03-29T01:50:10;0.90;;;0.90;;
17925;SDS011;9088;55.674;13.354;2023-03-29T01:52:38;0.80;;;0.80;;
17925;SDS011;9088;55.674;13.354;2023-03-29T01:55:08;0.80;;;0.80;;
17925;SDS011;9088;55.674;13.354;2023-03-29T01:57:37;0.70;;;0.70;;
17925;SDS011;9088;55.674;13.354;2023-03-29T02:00:06;0.70;;;0.70;;
17925;SDS011;9088;55.674;13.354;2023-03-29T02:02:35;0.70;;;0.70;;
17925;SDS011;9088;55.674;13.354;2023-03-29T02:05:03;0.70;;;0.70;;
17925;SDS011;9088;55.674;13.354;2023-03-29T02:07:33;0.70;;;0.70;;
17925;SDS011;9088;55.674;13.354;2023-03-29T02:10:02;0.60;;;0.60;;
17925;SDS011;9088;55.674;13.354;2023-03-29T02:12:29;0.60;;;0.60;;
17925;SDS011;9088;55.674;13.354;2023-03-29T02:14:57;0.60;;;0.60;;
17925;SDS011;9088;55.674;13.354;2023-03-29T02:17:25;0.60;;;0.60;;
17925;SDS011;9088;55.674;13.354;2023-03-29T02:19:53;0.60;;;0.60;;
17925;SDS011;9088;55.674;13.354;2023-03-29T02:22:23;0.60;;;0.60;;
17925;SDS011;9088;55.674;13.354;2023-03-29T02:24:53;0.60;;;0.60;;
17925;SDS011;9088;55.674;13.354;2023-03-29T02:27:23;0.50;;;0.50;;
17925;SDS011;9088;55.674;13.354;2023-03-29T02:29:50;0.50;;;0.50;;
17925;SDS011;9088;55.674;13.354;2023-03-29T02:32:19;0.50;;;0.50;;
17925;SDS011;9088;55.674;13.354;2023-03-29T02:34:47;0.50;;;0.50;;
17925;SDS011;9088;55.674;13.354;2023-03-29T02:37:16;0.60;;;0.60;;
17925;SDS011;9088;55.674;13.354;2023-03-29T02:39:48;0.50;;;0.50;;
17925;SDS011;9088;55.674;13.354;2023-03-29T02:42:16;0.50;;;0.50;;
17925;SDS011;9088;55.674;13.354;2023-03-29T02:44:44;0.43;;;0.43;;
17925;SDS011;9088;55.674;13.354;2023-03-29T02:47:12;0.50;;;0.50;;
17925;SDS011;9088;55.674;13.354;2023-03-29T02:49:43;0.47;;;0.47;;
17925;SDS011;9088;55.674;13.354;2023-03-29T02:52:11;0.40;;;0.40;;
17925;SDS011;9088;55.674;13.354;2023-03-29T02:54:39;0.40;;;0.40;;
17925;SDS011;9088;55.674;13.354;2023-03-29T02:57:07;0.50;;;0.50;;
17925;SDS011;9088;55.674;13.354;2023-03-29T02:59:34;0.50;;;0.50;;
17925;SDS011;9088;55.674;13.354;2023-03-29T03:02:02;0.50;;;0.50;;
17925;SDS011;9088;55.674;13.354;2023-03-29T03:04:29;0.43;;;0.43;;
17925;SDS011;9088;55.674;13.354;2023-03-29T03:06:59;0.50;;;0.50;;
17925;SDS011;9088;55.674;13.354;2023-03-29T03:09:26;0.50;;;0.50;;
17925;SDS011;9088;55.674;13.354;2023-03-29T03:11:53;0.50;;;0.50;;
17925;SDS011;9088;55.674;13.354;2023-03-29T03:14:20;0.50;;;0.50;;
17925;SDS011;9088;55.674;13.354;2023-03-29T03:16:48;0.60;;;0.60;;
17925;SDS011;9088;55.674;13.354;2023-03-29T03:19:15;0.50;;;0.50;;
17925;SDS011;9088;55.674;13.354;2023-03-29T03:21:42;0.50;;;0.50;;
17925;SDS011;9088;55.674;13.354;2023-03-29T03:24:12;0.60;;;0.60;;
17925;SDS011;9088;55.674;13.354;2023-03-29T03:26:39;0.60;;;0.60;;
17925;SDS011;9088;55.674;13.354;2023-03-29T03:29:06;0.70;;;0.70;;
17925;SDS011;9088;55.674;13.354;2023-03-29T03:31:33;0.70;;;0.70;;
17925;SDS011;9088;55.674;13.354;2023-03-29T03:34:00;0.70;;;0.70;;
17925;SDS011;9088;55.674;13.354;2023-03-29T03:36:27;0.70;;;0.70;;
17925;SDS011;9088;55.674;13.354;2023-03-29T03:38:55;0.60;;;0.60;;
17925;SDS011;9088;55.674;13.354;2023-03-29T03:41:23;0.70;;;0.70;;
17925;SDS011;9088;55.674;13.354;2023-03-29T03:43:51;0.70;;;0.70;;
17925;SDS011;9088;55.674;13.354;2023-03-29T03:46:18;0.80;;;0.80;;
17925;SDS011;9088;55.674;13.354;2023-03-29T03:48:45;0.80;;;0.80;;
17925;SDS011;9088;55.674;13.354;2023-03-29T03:51:15;0.73;;;0.73;;
17925;SDS011;9088;55.674;13.354;2023-03-29T03:53:42;0.80;;;0.80;;
17925;SDS011;9088;55.674;13.354;2023-03-29T03:56:09;0.87;;;0.87;;
17925;SDS011;9088;55.674;13.354;2023-03-29T03:58:38;0.90;;;0.90;;
17925;SDS011;9088;55.674;13.354;2023-03-29T04:01:05;0.90;;;0.90;;
17925;SDS011;9088;55.674;13.354;2023-03-29T04:03:33;1.00;;;1.00;;
17925;SDS011;9088;55.674;13.354;2023-03-29T04:06:01;0.90;;;0.90;;
17925;SDS011;9088;55.674;13.354;2023-03-29T04:08:29;1.00;;;1.00;;
17925;SDS011;9088;55.674;13.354;2023-03-29T04:10:56;1.10;;;1.10;;
17925;SDS011;9088;55.674;13.354;2023-03-29T04:13:23;1.17;;;1.17;;
17925;SDS011;9088;55.674;13.354;2023-03-29T04:15:52;1.10;;;1.10;;
17925;SDS011;9088;55.674;13.354;2023-03-29T04:18:20;1.30;;;1.30;;
17925;SDS011;9088;55.674;13.354;2023-03-29T04:20:49;1.40;;;1.40;;
17925;SDS011;9088;55.674;13.354;2023-03-29T04:23:16;1.40;;;1.40;;
17925;SDS011;9088;55.674;13.354;2023-03-29T04:25:43;1.30;;;1.30;;
17925;SDS011;9088;55.674;13.354;2023-03-29T04:28:11;1.30;;;1.30;;
17925;SDS011;9088;55.674;13.354;2023-03-29T04:30:38;1.33;;;1.33;;
17925;SDS011;9088;55.674;13.354;2023-03-29T04:33:06;1.40;;;1.40;;
17925;SDS011;9088;55.674;13.354;2023-03-29T04:35:34;1.50;;;1.50;;
17925;SDS011;9088;55.674;13.354;2023-03-29T04:38:01;1.50;;;1.50;;
17925;SDS011;9088;55.674;13.354;2023-03-29T04:40:29;1.70;;;1.70;;
17925;SDS011;9088;55.674;13.354;2023-03-29T04:42:57;1.60;;;1.60;;
17925;SDS011;9088;55.674;13.354;2023-03-29T04:45:24;1.60;;;1.60;;
17925;SDS011;9088;55.674;13.354;2023-03-29T04:47:54;1.70;;;1.70;;
17925;SDS011;9088;55.674;13.354;2023-03-29T04:50:26;1.80;;;1.80;;
17925;SDS011;9088;55.674;13.354;2023-03-29T04:52:53;1.80;;;1.80;;
17925;SDS011;9088;55.674;13.354;2023-03-29T04:55:23;2.10;;;2.00;;
17925;SDS011;9088;55.674;13.354;2023-03-29T04:57:50;2.10;;;2.00;;
17925;SDS011;9088;55.674;13.354;2023-03-29T05:00:19;2.40;;;2.30;;
17925;SDS011;9088;55.674;13.354;2023-03-29T05:02:51;2.20;;;2.10;;
17925;SDS011;9088;55.674;13.354;2023-03-29T05:05:18;2.40;;;2.30;;
17925;SDS011;9088;55.674;13.354;2023-03-29T05:07:52;2.40;;;2.30;;
17925;SDS011;9088;55.674;13.354;2023-03-29T05:10:19;2.30;;;2.20;;
17925;SDS011;9088;55.674;13.354;2023-03-29T05:12:47;2.30;;;2.20;;
17925;SDS011;9088;55.674;13.354;2023-03-29T05:15:17;2.20;;;2.10;;
17925;SDS011;9088;55.674;13.354;2023-03-29T05:17:45;2.40;;;2.30;;
17925;SDS011;9088;55.674;13.354;2023-03-29T05:20:12;2.40;;;2.30;;
17925;SDS011;9088;55.674;13.354;2023-03-29T05:22:40;2.40;;;2.30;;
17925;SDS011;9088;55.674;13.354;2023-03-29T05:25:09;2.40;;;2.30;;
17925;SDS011;9088;55.674;13.354;2023-03-29T05:27:37;2.30;;;2.20;;
17925;SDS011;9088;55.674;13.354;2023-03-29T05:30:04;2.40;;;2.30;;
17925;SDS011;9088;55.674;13.354;2023-03-29T05:32:34;2.40;;;2.30;;
17925;SDS011;9088;55.674;13.354;2023-03-29T05:35:02;2.70;;;2.60;;
17925;SDS011;9088;55.674;13.354;2023-03-29T05:37:30;2.80;;;2.70;;
17925;SDS011;9088;55.674;13.354;2023-03-29T05:39:57;2.70;;;2.60;;
17925;SDS011;9088;55.674;13.354;2023-03-29T05:42:26;3.00;;;2.90;;
17925;SDS011;9088;55.674;13.354;2023-03-29T05:44:53;2.53;;;2.43;;
17925;SDS011;9088;55.674;13.354;2023-03-29T05:47:20;2.63;;;2.53;;
17925;SDS011;9088;55.674;13.354;2023-03-29T05:49:47;2.90;;;2.80;;
17925;SDS011;9088;55.674;13.354;2023-03-29T05:52:15;5.93;;;5.73;;
17925;SDS011;9088;55.674;13.354;2023-03-29T05:54:42;5.80;;;5.60;;
17925;SDS011;9088;55.674;13.354;2023-03-29T05:57:09;5.90;;;5.70;;
17925;SDS011;9088;55.674;13.354;2023-03-29T05:59:37;6.20;;;6.00;;
17925;SDS011;9088;55.674;13.354;2023-03-29T06:02:04;6.20;;;6.00;;
17925;SDS011;9088;55.674;13.354;2023-03-29T06:04:31;6.00;;;5.80;;
17925;SDS011;9088;55.674;13.354;2023-03-29T06:07:00;6.20;;;6.00;;
17925;SDS011;9088;55.674;13.354;2023-03-29T06:09:29;5.10;;;4.90;;
17925;SDS011;9088;55.674;13.354;2023-03-29T06:11:56;5.00;;;4.80;;
17925;SDS011;9088;55.674;13.354;2023-03-29T06:14:23;5.20;;;5.00;;
17925;SDS011;9088;55.674;13.354;2023-03-29T06:16:52;5.10;;;4.90;;
17925;SDS011;9088;55.674;13.354;2023-03-29T06:19:20;4.97;;;4.77;;
17925;SDS011;9088;55.674;13.354;2023-03-29T06:21:48;5.20;;;5.00;;
17925;SDS011;9088;55.674;13.354;2023-03-29T06:24:16;5.10;;;4.90;;
17925;SDS011;9088;55.674;13.354;2023-03-29T06:26:44;5.33;;;5.13;;
17925;SDS011;9088;55.674;13.354;2023-03-29T06:29:11;5.30;;;5.10;;
17925;SDS011;9088;55.674;13.354;2023-03-29T06:31:38;5.10;;;4.90;;
17925;SDS011;9088;55.674;13.354;2023-03-29T06:34:07;5.33;;;5.13;;
17925;SDS011;9088;55.674;13.354;2023-03-29T06:36:34;5.40;;;5.20;;
17925;SDS011;9088;55.674;13.354;2023-03-29T06:39:01;5.30;;;5.10;;
17925;SDS011;9088;55.674;13.354;2023-03-29T06:41:32;5.20;;;5.00;;
17925;SDS011;9088;55.674;13.354;2023-03-29T06:43:59;5.00;;;4.80;;
17925;SDS011;9088;55.674;13.354;2023-03-29T06:46:28;5.10;;;4.90;;
17925;SDS011;9088;55.674;13.354;2023-03-29T06:48:55;5.00;;;4.80;;
17925;SDS011;9088;55.674;13.354;2023-03-29T06:51:25;5.00;;;4.80;;
17925;SDS011;9088;55.674;13.354;2023-03-29T06:53:52;4.60;;;4.40;;
17925;SDS011;9088;55.674;13.354;2023-03-29T06:56:19;4.70;;;4.50;;
17925;SDS011;9088;55.674;13.354;2023-03-29T06:58:46;5.00;;;4.80;;
17925;SDS011;9088;55.674;13.354;2023-03-29T07:01:13;5.30;;;5.10;;
17925;SDS011;9088;55.674;13.354;2023-03-29T07:03:40;5.30;;;5.10;;
17925;SDS011;9088;55.674;13.354;2023-03-29T07:06:12;5.30;;;5.10;;
17925;SDS011;9088;55.674;13.354;2023-03-29T07:08:42;5.20;;;5.00;;
17925;SDS011;9088;55.674;13.354;2023-03-29T07:11:12;5.50;;;5.30;;
17925;SDS011;9088;55.674;13.354;2023-03-29T07:13:39;5.60;;;5.40;;
17925;SDS011;9088;55.674;13.354;2023-03-29T07:16:07;5.50;;;5.30;;
17925;SDS011;9088;55.674;13.354;2023-03-29T07:18:36;5.60;;;5.40;;
17925;SDS011;9088;55.674;13.354;2023-03-29T07:21:04;5.50;;;5.30;;
17925;SDS011;9088;55.674;13.354;2023-03-29T07:23:31;5.30;;;5.10;;
17925;SDS011;9088;55.674;13.354;2023-03-29T07:25:59;5.43;;;5.23;;
17925;SDS011;9088;55.674;13.354;2023-03-29T07:28:27;5.70;;;5.50;;
17925;SDS011;9088;55.674;13.354;2023-03-29T07:31:00;5.70;;;5.50;;
17925;SDS011;9088;55.674;13.354;2023-03-29T07:33:27;5.67;;;5.47;;
17925;SDS011;9088;55.674;13.354;2023-03-29T07:35:54;5.60;;;5.40;;
17925;SDS011;9088;55.674;13.354;2023-03-29T07:38:21;6.40;;;6.20;;
17925;SDS011;9088;55.674;13.354;2023-03-29T07:40:49;7.60;;;7.30;;
17925;SDS011;9088;55.674;13.354;2023-03-29T07:43:18;7.63;;;7.33;;
17925;SDS011;9088;55.674;13.354;2023-03-29T07:45:46;7.90;;;7.60;;
17925;SDS011;9088;55.674;13.354;2023-03-29T07:48:13;7.90;;;7.60;;
17925;SDS011;9088;55.674;13.354;2023-03-29T07:50:41;8.20;;;7.90;;
17925;SDS011;9088;55.674;13.354;2023-03-29T07:53:08;8.03;;;7.73;;
17925;SDS011;9088;55.674;13.354;2023-03-29T07:55:35;7.67;;;7.37;;
17925;SDS011;9088;55.674;13.354;2023-03-29T07:58:06;8.00;;;7.70;;
17925;SDS011;9088;55.674;13.354;2023-03-29T08:00:34;8.10;;;7.80;;
17925;SDS011;9088;55.674;13.354;2023-03-29T08:03:02;8.10;;;7.80;;
17925;SDS011;9088;55.674;13.354;2023-03-29T08:05:29;8.37;;;8.07;;
17925;SDS011;9088;55.674;13.354;2023-03-29T08:07:56;8.20;;;7.90;;
17925;SDS011;9088;55.674;13.354;2023-03-29T08:10:23;8.03;;;7.73;;
17925;SDS011;9088;55.674;13.354;2023-03-29T08:12:51;8.23;;;7.93;;
17925;SDS011;9088;55.674;13.354;2023-03-29T08:15:22;8.17;;;7.87;;
17925;SDS011;9088;55.674;13.354;2023-03-29T08:17:50;8.10;;;7.80;;
17925;SDS011;9088;55.674;13.354;2023-03-29T08:20:17;8.23;;;7.93;;
17925;SDS011;9088;55.674;13.354;2023-03-29T08:22:44;7.97;;;7.67;;
17925;SDS011;9088;55.674;13.354;2023-03-29T08:25:12;8.20;;;7.90;;
17925;SDS011;9088;55.674;13.354;2023-03-29T08:27:40;7.60;;;7.30;;
17925;SDS011;9088;55.674;13.354;2023-03-29T08:30:09;8.20;;;7.90;;
17925;SDS011;9088;55.674;13.354;2023-03-29T08:32:36;8.13;;;7.83;;
17925;SDS011;9088;55.674;13.354;2023-03-29T08:35:05;8.13;;;7.83;;
17925;SDS011;9088;55.674;13.354;2023-03-29T08:37:33;8.10;;;7.80;;
17925;SDS011;9088;55.674;13.354;2023-03-29T08:40:03;8.37;;;8.07;;
17925;SDS011;9088;55.674;13.354;2023-03-29T08:42:52;8.23;;;7.93;;
17925;SDS011;9088;55.674;13.354;2023-03-29T08:45:24;8.70;;;8.40;;
17925;SDS011;9088;55.674;13.354;2023-03-29T08:47:54;8.70;;;8.40;;
17925;SDS011;9088;55.674;13.354;2023-03-29T08:50:29;8.57;;;8.27;;
17925;SDS011;9088;55.674;13.354;2023-03-29T08:52:58;8.50;;;8.20;;
17925;SDS011;9088;55.674;13.354;2023-03-29T08:55:29;8.13;;;7.83;;
17925;SDS011;9088;55.674;13.354;2023-03-29T08:57:57;8.70;;;8.40;;
17925;SDS011;9088;55.674;13.354;2023-03-29T09:00:27;8.50;;;8.20;;
17925;SDS011;9088;55.674;13.354;2023-03-29T09:02:57;8.33;;;8.03;;
17925;SDS011;9088;55.674;13.354;2023-03-29T09:05:28;8.67;;;8.37;;
17925;SDS011;9088;55.674;13.354;2023-03-29T09:07:57;6.70;;;6.40;;
17925;SDS011;9088;55.674;13.354;2023-03-29T09:10:28;7.00;;;6.70;;
17925;SDS011;9088;55.674;13.354;2023-03-29T09:13:05;6.93;;;6.63;;
17925;SDS011;9088;55.674;13.354;2023-03-29T09:15:36;7.57;;;7.27;;
17925;SDS011;9088;55.674;13.354;2023-03-29T09:18:08;7.50;;;7.20;;
17925;SDS011;9088;55.674;13.354;2023-03-29T09:20:40;7.40;;;7.10;;
17925;SDS011;9088;55.674;13.354;2023-03-29T09:23:19;7.70;;;7.40;;
17925;SDS011;9088;55.674;13.354;2023-03-29T09:25:51;7.90;;;7.60;;
17925;SDS011;9088;55.674;13.354;2023-03-29T09:28:24;7.77;;;7.47;;
17925;SDS011;9088;55.674;13.354;2023-03-29T09:30:56;7.90;;;7.60;;
17925;SDS011;9088;55.674;13.354;2023-03-29T09:33:25;7.27;;;6.97;;
17925;SDS011;9088;55.674;13.354;2023-03-29T09:35:57;7.73;;;7.43;;
17925;SDS011;9088;55.674;13.354;2023-03-29T09:38:26;8.07;;;7.77;;
17925;SDS011;9088;55.674;13.354;2023-03-29T09:40:55;8.00;;;7.70;;
17925;SDS011;9088;55.674;13.354;2023-03-29T09:43:27;8.10;;;7.80;;
17925;SDS011;9088;55.674;13.354;2023-03-29T09:45:54;8.03;;;7.73;;
17925;SDS011;9088;55.674;13.354;2023-03-29T09:48:23;8.30;;;8.00;;
17925;SDS011;9088;55.674;13.354;2023-03-29T09:50:51;8.13;;;7.83;;
17925;SDS011;9088;55.674;13.354;2023-03-29T09:53:19;7.80;;;7.50;;
17925;SDS011;9088;55.674;13.354;2023-03-29T09:55:50;8.40;;;8.10;;
17925;SDS011;9088;55.674;13.354;2023-03-29T09:58:21;8.23;;;7.93;;
17925;SDS011;9088;55.674;13.354;2023-03-29T10:00:51;8.77;;;8.47;;
17925;SDS011;9088;55.674;13.354;2023-03-29T10:03:19;7.07;;;6.77;;
17925;SDS011;9088;55.674;13.354;2023-03-29T10:05:46;9.00;;;8.60;;
17925;SDS011;9088;55.674;13.354;2023-03-29T10:10:56;8.20;;;7.90;;
17925;SDS011;9088;55.674;13.354;2023-03-29T10:13:28;8.30;;;8.00;;
17925;SDS011;9088;55.674;13.354;2023-03-29T10:15:57;7.77;;;7.47;;
17925;SDS011;9088;55.674;13.354;2023-03-29T10:18:25;8.13;;;7.83;;
17925;SDS011;9088;55.674;13.354;2023-03-29T10:20:56;8.00;;;7.70;;
17925;SDS011;9088;55.674;13.354;2023-03-29T10:23:28;8.20;;;7.90;;
17925;SDS011;9088;55.674;13.354;2023-03-29T10:25:57;8.03;;;7.73;;
17925;SDS011;9088;55.674;13.354;2023-03-29T10:28:24;8.17;;;7.87;;
17925;SDS011;9088;55.674;13.354;2023-03-29T10:30:55;7.87;;;7.57;;
17925;SDS011;9088;55.674;13.354;2023-03-29T10:33:23;7.87;;;7.57;;
17925;SDS011;9088;55.674;13.354;2023-03-29T10:35:53;7.60;;;7.30;;
17925;SDS011;9088;55.674;13.354;2023-03-29T10:38:22;8.30;;;8.00;;
17925;SDS011;9088;55.674;13.354;2023-03-29T10:41:03;8.17;;;7.87;;
17925;SDS011;9088;55.674;13.354;2023-03-29T10:43:35;7.53;;;7.23;;
17925;SDS011;9088;55.674;13.354;2023-03-29T10:46:06;7.83;;;7.53;;
17925;SDS011;9088;55.674;13.354;2023-03-29T10:48:34;7.40;;;7.10;;
17925;SDS011;9088;55.674;13.354;2023-03-29T10:51:02;7.50;;;7.20;;
17925;SDS011;9088;55.674;13.354;2023-03-29T10:53:31;7.67;;;7.37;;
17925;SDS011;9088;55.674;13.354;2023-03-29T10:56:04;7.73;;;7.43;;
17925;SDS011;9088;55.674;13.354;2023-03-29T10:58:54;7.03;;;6.73;;
17925;SDS011;9088;55.674;13.354;2023-03-29T11:01:25;7.43;;;7.13;;
17925;SDS011;9088;55.674;13.354;2023-03-29T11:04:01;7.43;;;7.13;;
17925;SDS011;9088;55.674;13.354;2023-03-29T11:06:32;7.40;;;7.10;;
17925;SDS011;9088;55.674;13.354;2023-03-29T11:09:00;7.00;;;6.70;;
17925;SDS011;9088;55.674;13.354;2023-03-29T11:11:36;6.50;;;6.30;;
17925;SDS011;9088;55.674;13.354;2023-03-29T11:14:08;6.10;;;5.90;;
17925;SDS011;9088;55.674;13.354;2023-03-29T11:16:40;6.07;;;5.87;;
17925;SDS011;9088;55.674;13.354;2023-03-29T11:19:13;6.20;;;6.00;;
17925;SDS011;9088;55.674;13.354;2023-03-29T11:21:45;5.80;;;5.60;;
17925;SDS011;9088;55.674;13.354;2023-03-29T11:24:31;6.30;;;6.10;;
17925;SDS011;9088;55.674;13.354;2023-03-29T11:27:11;6.60;;;6.37;;
17925;SDS011;9088;55.674;13.354;2023-03-29T11:29:44;7.30;;;7.00;;
17925;SDS011;9088;55.674;13.354;2023-03-29T11:32:13;6.47;;;6.27;;
17925;SDS011;9088;55.674;13.354;2023-03-29T11:34:46;7.10;;;6.80;;
17925;SDS011;9088;55.674;13.354;2023-03-29T11:37:17;6.13;;;5.93;;
17925;SDS011;9088;55.674;13.354;2023-03-29T11:39:47;6.10;;;5.90;;
17925;SDS011;9088;55.674;13.354;2023-03-29T11:42:20;5.97;;;5.77;;
17925;SDS011;9088;55.674;13.354;2023-03-29T11:44:49;6.20;;;6.00;;
17925;SDS011;9088;55.674;13.354;2023-03-29T11:47:19;6.23;;;6.03;;
17925;SDS011;9088;55.674;13.354;2023-03-29T11:49:49;6.13;;;5.93;;
17925;SDS011;9088;55.674;13.354;2023-03-29T11:52:24;7.63;;;7.33;;
17925;SDS011;9088;55.674;13.354;2023-03-29T11:54:52;6.80;;;6.50;;
17925;SDS011;9088;55.674;13.354;2023-03-29T11:57:29;7.90;;;7.60;;
17925;SDS011;9088;55.674;13.354;2023-03-29T11:59:58;7.17;;;6.87;;
17925;SDS011;9088;55.674;13.354;2023-03-29T12:02:30;7.50;;;7.20;;
17925;SDS011;9088;55.674;13.354;2023-03-29T12:05:00;6.50;;;6.30;;
17925;SDS011;9088;55.674;13.354;2023-03-29T12:07:28;7.37;;;7.07;;
17925;SDS011;9088;55.674;13.354;2023-03-29T12:09:57;6.33;;;6.13;;
17925;SDS011;9088;55.674;13.354;2023-03-29T12:12:29;6.93;;;6.63;;
17925;SDS011;9088;55.674;13.354;2023-03-29T12:15:03;6.10;;;5.90;;
17925;SDS011;9088;55.674;13.354;2023-03-29T12:17:31;7.13;;;6.83;;
17925;SDS011;9088;55.674;13.354;2023-03-29T12:20:01;6.97;;;6.67;;
17925;SDS011;9088;55.674;13.354;2023-03-29T12:22:30;7.27;;;6.97;;
17925;SDS011;9088;55.674;13.354;2023-03-29T12:24:58;6.80;;;6.50;;
17925;SDS011;9088;55.674;13.354;2023-03-29T12:27:26;7.00;;;6.70;;
17925;SDS011;9088;55.674;13.354;2023-03-29T12:30:05;7.00;;;6.70;;
17925;SDS011;9088;55.674;13.354;2023-03-29T12:32:37;7.33;;;7.03;;
17925;SDS011;9088;55.674;13.354;2023-03-29T12:35:13;6.57;;;6.37;;
17925;SDS011;9088;55.674;13.354;2023-03-29T12:37:44;6.60;;;6.37;;
17925;SDS011;9088;55.674;13.354;2023-03-29T12:40:17;6.83;;;6.53;;
17925;SDS011;9088;55.674;13.354;2023-03-29T12:42:45;6.90;;;6.60;;
17925;SDS011;9088;55.674;13.354;2023-03-29T12:45:18;6.40;;;6.20;;
17925;SDS011;9088;55.674;13.354;2023-03-29T12:47:45;5.80;;;5.60;;
17925;SDS011;9088;55.674;13.354;2023-03-29T12:50:17;7.00;;;6.70;;
17925;SDS011;9088;55.674;13.354;2023-03-29T12:52:47;6.57;;;6.37;;
17925;SDS011;9088;55.674;13.354;2023-03-29T12:55:16;6.13;;;5.93;;
17925;SDS011;9088;55.674;13.354;2023-03-29T12:57:55;6.97;;;6.67;;
17925;SDS011;9088;55.674;13.354;2023-03-29T13:00:26;6.00;;;5.80;;
17925;SDS011;9088;55.674;13.354;2023-03-29T13:03:00;6.00;;;5.80;;
17925;SDS011;9088;55.674;13.354;2023-03-29T13:05:31;6.10;;;5.90;;
17925;SDS011;9088;55.674;13.354;2023-03-29T13:07:58;5.70;;;5.50;;
17925;SDS011;9088;55.674;13.354;2023-03-29T13:10:36;5.70;;;5.50;;
17925;SDS011;9088;55.674;13.354;2023-03-29T13:13:10;6.00;;;5.80;;
17925;SDS011;9088;55.674;13.354;2023-03-29T13:15:39;5.63;;;5.43;;
17925;SDS011;9088;55.674;13.354;2023-03-29T13:18:08;5.90;;;5.70;;
17925;SDS011;9088;55.674;13.354;2023-03-29T13:20:41;5.50;;;5.30;;
17925;SDS011;9088;55.674;13.354;2023-03-29T13:23:19;5.67;;;5.47;;
17925;SDS011;9088;55.674;13.354;2023-03-29T13:25:52;5.63;;;5.43;;
17925;SDS011;9088;55.674;13.354;2023-03-29T13:28:25;5.50;;;5.30;;
17925;SDS011;9088;55.674;13.354;2023-03-29T13:31:00;6.10;;;5.90;;
17925;SDS011;9088;55.674;13.354;2023-03-29T13:33:38;6.27;;;6.07;;
17925;SDS011;9088;55.674;13.354;2023-03-29T13:36:14;5.97;;;5.77;;
17925;SDS011;9088;55.674;13.354;2023-03-29T13:38:43;5.47;;;5.27;;
17925;SDS011;9088;55.674;13.354;2023-03-29T13:41:23;5.60;;;5.40;;
17925;SDS011;9088;55.674;13.354;2023-03-29T13:43:52;5.37;;;5.17;;
17925;SDS011;9088;55.674;13.354;2023-03-29T13:46:21;5.40;;;5.20;;
17925;SDS011;9088;55.674;13.354;2023-03-29T13:48:59;5.13;;;4.93;;
17925;SDS011;9088;55.674;13.354;2023-03-29T13:51:33;4.93;;;4.73;;
17925;SDS011;9088;55.674;13.354;2023-03-29T13:54:05;5.53;;;5.33;;
17925;SDS011;9088;55.674;13.354;2023-03-29T13:56:33;5.13;;;4.93;;
17925;SDS011;9088;55.674;13.354;2023-03-29T13:59:04;5.20;;;5.00;;
17925;SDS011;9088;55.674;13.354;2023-03-29T14:01:38;4.63;;;4.43;;
17925;SDS011;9088;55.674;13.354;2023-03-29T14:04:10;5.60;;;5.40;;
17925;SDS011;9088;55.674;13.354;2023-03-29T14:06:41;5.55;;;5.35;;
17925;SDS011;9088;55.674;13.354;2023-03-29T14:09:11;5.17;;;4.97;;
17925;SDS011;9088;55.674;13.354;2023-03-29T14:11:41;5.23;;;5.03;;
17925;SDS011;9088;55.674;13.354;2023-03-29T14:14:09;5.60;;;5.40;;
17925;SDS011;9088;55.674;13.354;2023-03-29T14:16:38;5.60;;;5.40;;
17925;SDS011;9088;55.674;13.354;2023-03-29T14:19:10;5.27;;;5.07;;
17925;SDS011;9088;55.674;13.354;2023-03-29T14:21:39;5.27;;;5.07;;
17925;SDS011;9088;55.674;13.354;2023-03-29T14:24:07;5.20;;;5.00;;
17925;SDS011;9088;55.674;13.354;2023-03-29T14:26:37;5.50;;;5.30;;
17925;SDS011;9088;55.674;13.354;2023-03-29T14:29:08;5.17;;;4.97;;
17925;SDS011;9088;55.674;13.354;2023-03-29T14:31:36;5.63;;;5.43;;
17925;SDS011;9088;55.674;13.354;2023-03-29T14:34:06;5.10;;;4.90;;
17925;SDS011;9088;55.674;13.354;2023-03-29T14:36:33;5.37;;;5.17;;
17925;SDS011;9088;55.674;13.354;2023-03-29T14:39:03;5.20;;;5.00;;
17925;SDS011;9088;55.674;13.354;2023-03-29T14:41:30;5.00;;;4.80;;
17925;SDS011;9088;55.674;13.354;2023-03-29T14:43:59;5.60;;;5.40;;
17925;SDS011;9088;55.674;13.354;2023-03-29T14:46:27;5.47;;;5.27;;
17925;SDS011;9088;55.674;13.354;2023-03-29T14:48:57;5.63;;;5.43;;
17925;SDS011;9088;55.674;13.354;2023-03-29T14:51:27;5.80;;;5.60;;
17925;SDS011;9088;55.674;13.354;2023-03-29T14:53:55;5.20;;;5.00;;
17925;SDS011;9088;55.674;13.354;2023-03-29T14:56:23;5.27;;;5.07;;
17925;SDS011;9088;55.674;13.354;2023-03-29T14:58:52;5.37;;;5.17;;
17925;SDS011;9088;55.674;13.354;2023-03-29T15:01:20;5.20;;;5.00;;
17925;SDS011;9088;55.674;13.354;2023-03-29T15:03:50;5.63;;;5.43;;